Millenium Air

Millenium Air Since 1998



 METAR AND TAF INFORMATION
METAR FOR UKOO
ADDS - METARS form results

(0150 UTC 26 February 2021)
Data provider http://aviationweather.gov/metar/data/
 
METAR text: UKOO 260135Z 00000MPS 4900 BR NSC 05/04 Q1027 R16/190058 NOSIG
Conditions at: UKOO (ODESSA/TSENTRALN, UA) observed 0135 UTC 26 February 2021
Temperature: 5.0°C (41°F)
Dewpoint: 4.0°C (39°F) [RH = 93%]
Pressure (altimeter): 30.32 inches Hg (1027.0 mb)
Winds: calm
Visibility: 3 miles ( 5 km)
Ceiling: at least 12,000 feet AGL
Clouds: sky clear below 12,000 feet AGL
Weather: BR  (mist)

METAR text: UKOO 260130Z 00000MPS 7000 NSC 05/04 Q1027 R16/190058 NOSIG
Conditions at: UKOO (ODESSA/TSENTRALN, UA) observed 0130 UTC 26 February 2021
Temperature: 5.0°C (41°F)
Dewpoint: 4.0°C (39°F) [RH = 93%]
Pressure (altimeter): 30.32 inches Hg (1027.0 mb)
Winds: calm
Visibility: 4 miles ( 7 km)
Ceiling: at least 12,000 feet AGL
Clouds: sky clear below 12,000 feet AGL
Weather: no significant weather observed at this time

METAR text: UKOO 260100Z 00000MPS 9000 NSC 05/04 Q1028 R16/190058 NOSIG
Conditions at: UKOO (ODESSA/TSENTRALN, UA) observed 0100 UTC 26 February 2021
Temperature: 5.0°C (41°F)
Dewpoint: 4.0°C (39°F) [RH = 93%]
Pressure (altimeter): 30.35 inches Hg (1028.0 mb)
Winds: calm
Visibility: 6 miles ( 9 km)
Ceiling: at least 12,000 feet AGL
Clouds: sky clear below 12,000 feet AGL
Weather: no significant weather observed at this time

Forecast for: COR
Text: TAF COR UKOO 260011Z 2600/2624 25003MPS 2100 BR SCT004 BKN007 TX14/2612Z TN03/2603Z
Forecast period: 0000 to 0900 UTC 26 February 2021
Forecast type: FROM: standard forecast or significant change
Winds: from the WSW (250 degrees) at 7 MPH (6 knots; 3.1 m/s)
Visibility: 1.30 miles (2.09 km)
Ceiling: 700 feet AGL
Clouds: scattered clouds at 400 feet AGL
broken clouds at 700 feet AGL
Weather: BR  (mist)
Text: TEMPO 2600/2607 0300 FG VV002
Forecast period: 0000 to 0700 UTC 26 February 2021
Forecast type: TEMPORARY: The following changes expected for less than half the time period
Visibility: 0.19 miles (0.31 km)
Ceiling: indefinite ceiling with vertical visibility of 200 feet AGL
Clouds: obscured sky
Weather: FG  (fog)
Text: BECMG 2609/2610 6000 NSW
Forecast period: 0900 to 1600 UTC 26 February 2021
Forecast type: BECOMING: Conditions expected to become as follows by 1000 UTC 26 February 2021
Winds: from the WSW (250 degrees) at 7 MPH (6 knots; 3.1 m/s)
Visibility: 4 miles (6 km)
Ceiling: 700 feet AGL
Clouds: scattered clouds at 400 feet AGL
broken clouds at 700 feet AGL
Weather: NSW  (no significant weather)
Text: BECMG 2616/2617 2100 BR
Forecast period: 1600 UTC 26 February 2021 to 0000 UTC 27 February 2021
Forecast type: BECOMING: Conditions expected to become as follows by 1700 UTC 26 February 2021
Winds: from the WSW (250 degrees) at 7 MPH (6 knots; 3.1 m/s)
Visibility: 1.30 miles (2.09 km)
Ceiling: 700 feet AGL
Clouds: scattered clouds at 400 feet AGL
broken clouds at 700 feet AGL
Weather: BR  (mist)

 AIRPORT MAP

 RUNWAY INFORMATION
Runway 07 Runway length 1815 ft Runway width 197 ft
Runway elevation 0 ft Runway displaced threshold 0 ft Runway heading 75
Runway 25 Runway length 1815 ft Runway width 197 ft
Runway elevation 0 ft Runway displaced threshold 0 ft Runway heading 255
Runway 16 Runway length 9183 ft Runway width 184 ft
Runway elevation 172 ft Runway displaced threshold 0 ft Runway heading 163
Runway 34 Runway length 9183 ft Runway width 184 ft
Runway elevation 165 ft Runway displaced threshold 0 ft Runway heading 343
Runway 18 Runway length 2950 ft Runway width 190 ft
Runway elevation 0 ft Runway displaced threshold 0 ft Runway heading 182
Runway 36 Runway length 2950 ft Runway width 190 ft
Runway elevation 0 ft Runway displaced threshold 0 ft Runway heading 2

 AIRPORT FREQUENCIES
Type APP Name RADAR Frequency 120.9 MHZ
Type ATIS Name ATIS Frequency 124.8 MHZ
Type GND Name GND Frequency 121.8 MHZ
Type TWR Name TWR Frequency 125.5 MHZ

 AIRPORT NEAR NAVIGATION AIDS
Type VOR-DME Name Odesa Frequency 113950 KHZ